sensor_id;sensor_type;location;lat;lon;timestamp;P1;durP1;ratioP1;P2;durP2;ratioP2
19735;SDS011;32064;49.310;8.646;2023-04-25T00:01:35;6.00;;;2.07;;
19735;SDS011;32064;49.310;8.646;2023-04-25T00:04:01;2.40;;;1.97;;
19735;SDS011;32064;49.310;8.646;2023-04-25T00:06:27;3.03;;;2.03;;
19735;SDS011;32064;49.310;8.646;2023-04-25T00:08:55;2.33;;;2.00;;
19735;SDS011;32064;49.310;8.646;2023-04-25T00:11:21;2.30;;;2.10;;
19735;SDS011;32064;49.310;8.646;2023-04-25T00:13:47;2.27;;;1.93;;
19735;SDS011;32064;49.310;8.646;2023-04-25T00:16:13;2.70;;;2.10;;
19735;SDS011;32064;49.310;8.646;2023-04-25T00:18:41;2.37;;;2.00;;
19735;SDS011;32064;49.310;8.646;2023-04-25T00:21:07;2.03;;;1.83;;
19735;SDS011;32064;49.310;8.646;2023-04-25T00:23:33;2.17;;;1.97;;
19735;SDS011;32064;49.310;8.646;2023-04-25T00:26:00;2.67;;;2.47;;
19735;SDS011;32064;49.310;8.646;2023-04-25T00:28:26;2.03;;;1.80;;
19735;SDS011;32064;49.310;8.646;2023-04-25T00:30:51;2.27;;;1.83;;
19735;SDS011;32064;49.310;8.646;2023-04-25T00:33:16;2.67;;;2.07;;
19735;SDS011;32064;49.310;8.646;2023-04-25T00:35:42;3.10;;;2.13;;
19735;SDS011;32064;49.310;8.646;2023-04-25T00:38:07;2.27;;;2.07;;
19735;SDS011;32064;49.310;8.646;2023-04-25T00:40:33;2.77;;;1.80;;
19735;SDS011;32064;49.310;8.646;2023-04-25T00:42:58;2.33;;;2.00;;
19735;SDS011;32064;49.310;8.646;2023-04-25T00:45:27;2.60;;;2.10;;
19735;SDS011;32064;49.310;8.646;2023-04-25T00:47:54;2.50;;;2.17;;
19735;SDS011;32064;49.310;8.646;2023-04-25T00:50:20;2.83;;;1.90;;
19735;SDS011;32064;49.310;8.646;2023-04-25T00:52:45;2.50;;;1.90;;
19735;SDS011;32064;49.310;8.646;2023-04-25T00:55:11;2.00;;;1.80;;
19735;SDS011;32064;49.310;8.646;2023-04-25T00:57:37;1.70;;;1.43;;
19735;SDS011;32064;49.310;8.646;2023-04-25T01:00:04;4.00;;;1.83;;
19735;SDS011;32064;49.310;8.646;2023-04-25T01:02:31;5.03;;;2.00;;
19735;SDS011;32064;49.310;8.646;2023-04-25T01:04:58;3.70;;;2.10;;
19735;SDS011;32064;49.310;8.646;2023-04-25T01:07:24;3.27;;;2.00;;
19735;SDS011;32064;49.310;8.646;2023-04-25T01:09:51;2.43;;;1.90;;
19735;SDS011;32064;49.310;8.646;2023-04-25T01:12:17;2.13;;;1.90;;
19735;SDS011;32064;49.310;8.646;2023-04-25T01:14:43;5.10;;;3.17;;
19735;SDS011;32064;49.310;8.646;2023-04-25T01:17:09;2.73;;;2.50;;
19735;SDS011;32064;49.310;8.646;2023-04-25T01:19:35;2.77;;;2.20;;
19735;SDS011;32064;49.310;8.646;2023-04-25T01:22:00;3.00;;;2.60;;
19735;SDS011;32064;49.310;8.646;2023-04-25T01:24:26;2.23;;;2.00;;
19735;SDS011;32064;49.310;8.646;2023-04-25T01:26:51;2.13;;;1.80;;
19735;SDS011;32064;49.310;8.646;2023-04-25T01:29:18;4.07;;;2.50;;
19735;SDS011;32064;49.310;8.646;2023-04-25T01:31:45;4.13;;;2.67;;
19735;SDS011;32064;49.310;8.646;2023-04-25T01:34:11;2.47;;;2.20;;
19735;SDS011;32064;49.310;8.646;2023-04-25T01:36:37;2.37;;;2.00;;
19735;SDS011;32064;49.310;8.646;2023-04-25T01:39:02;5.17;;;3.77;;
19735;SDS011;32064;49.310;8.646;2023-04-25T01:41:28;3.63;;;2.50;;
19735;SDS011;32064;49.310;8.646;2023-04-25T01:43:54;2.50;;;2.30;;
19735;SDS011;32064;49.310;8.646;2023-04-25T01:46:20;2.23;;;2.03;;
19735;SDS011;32064;49.310;8.646;2023-04-25T01:48:45;2.53;;;2.07;;
19735;SDS011;32064;49.310;8.646;2023-04-25T01:51:11;4.13;;;2.97;;
19735;SDS011;32064;49.310;8.646;2023-04-25T01:53:37;2.97;;;2.47;;
19735;SDS011;32064;49.310;8.646;2023-04-25T01:56:03;4.00;;;2.57;;
19735;SDS011;32064;49.310;8.646;2023-04-25T01:58:29;2.63;;;2.20;;
19735;SDS011;32064;49.310;8.646;2023-04-25T02:00:54;2.57;;;2.20;;
19735;SDS011;32064;49.310;8.646;2023-04-25T02:03:21;2.60;;;2.20;;
19735;SDS011;32064;49.310;8.646;2023-04-25T02:05:46;2.67;;;2.27;;
19735;SDS011;32064;49.310;8.646;2023-04-25T02:08:12;2.20;;;1.90;;
19735;SDS011;32064;49.310;8.646;2023-04-25T02:10:38;2.43;;;2.20;;
19735;SDS011;32064;49.310;8.646;2023-04-25T02:13:03;2.93;;;1.90;;
19735;SDS011;32064;49.310;8.646;2023-04-25T02:15:30;1.90;;;1.63;;
19735;SDS011;32064;49.310;8.646;2023-04-25T02:17:55;2.80;;;2.10;;
19735;SDS011;32064;49.310;8.646;2023-04-25T02:20:24;1.63;;;1.50;;
19735;SDS011;32064;49.310;8.646;2023-04-25T02:22:50;2.93;;;1.63;;
19735;SDS011;32064;49.310;8.646;2023-04-25T02:25:16;2.80;;;1.67;;
19735;SDS011;32064;49.310;8.646;2023-04-25T02:27:42;1.67;;;1.50;;
19735;SDS011;32064;49.310;8.646;2023-04-25T02:30:08;1.73;;;1.60;;
19735;SDS011;32064;49.310;8.646;2023-04-25T02:32:33;2.20;;;1.67;;
19735;SDS011;32064;49.310;8.646;2023-04-25T02:34:59;2.97;;;1.90;;
19735;SDS011;32064;49.310;8.646;2023-04-25T02:37:31;2.17;;;1.63;;
19735;SDS011;32064;49.310;8.646;2023-04-25T02:39:58;1.60;;;1.40;;
19735;SDS011;32064;49.310;8.646;2023-04-25T02:42:23;2.93;;;1.70;;
19735;SDS011;32064;49.310;8.646;2023-04-25T02:44:49;2.23;;;1.80;;
19735;SDS011;32064;49.310;8.646;2023-04-25T02:47:14;2.67;;;2.17;;
19735;SDS011;32064;49.310;8.646;2023-04-25T02:49:39;2.57;;;2.10;;
19735;SDS011;32064;49.310;8.646;2023-04-25T02:52:05;2.27;;;1.77;;
19735;SDS011;32064;49.310;8.646;2023-04-25T02:54:31;4.87;;;2.00;;
19735;SDS011;32064;49.310;8.646;2023-04-25T02:56:56;2.90;;;2.20;;
19735;SDS011;32064;49.310;8.646;2023-04-25T02:59:22;2.30;;;2.00;;
19735;SDS011;32064;49.310;8.646;2023-04-25T03:01:47;3.90;;;2.10;;
19735;SDS011;32064;49.310;8.646;2023-04-25T03:04:12;2.57;;;1.80;;
19735;SDS011;32064;49.310;8.646;2023-04-25T03:06:38;3.10;;;2.03;;
19735;SDS011;32064;49.310;8.646;2023-04-25T03:09:03;2.80;;;2.20;;
19735;SDS011;32064;49.310;8.646;2023-04-25T03:11:29;3.20;;;2.30;;
19735;SDS011;32064;49.310;8.646;2023-04-25T03:13:54;3.37;;;2.20;;
19735;SDS011;32064;49.310;8.646;2023-04-25T03:16:19;2.43;;;2.10;;
19735;SDS011;32064;49.310;8.646;2023-04-25T03:18:45;3.70;;;2.10;;
19735;SDS011;32064;49.310;8.646;2023-04-25T03:21:11;3.43;;;2.53;;
19735;SDS011;32064;49.310;8.646;2023-04-25T03:23:36;4.80;;;2.40;;
19735;SDS011;32064;49.310;8.646;2023-04-25T03:26:02;2.73;;;2.37;;
19735;SDS011;32064;49.310;8.646;2023-04-25T03:28:27;3.57;;;2.50;;
19735;SDS011;32064;49.310;8.646;2023-04-25T03:30:53;2.87;;;2.20;;
19735;SDS011;32064;49.310;8.646;2023-04-25T03:33:19;2.33;;;1.87;;
19735;SDS011;32064;49.310;8.646;2023-04-25T03:35:44;3.87;;;2.20;;
19735;SDS011;32064;49.310;8.646;2023-04-25T03:38:10;2.67;;;2.10;;
19735;SDS011;32064;49.310;8.646;2023-04-25T03:40:35;3.47;;;2.77;;
19735;SDS011;32064;49.310;8.646;2023-04-25T03:43:01;4.57;;;3.07;;
19735;SDS011;32064;49.310;8.646;2023-04-25T03:45:26;4.23;;;2.20;;
19735;SDS011;32064;49.310;8.646;2023-04-25T03:47:52;5.03;;;2.50;;
19735;SDS011;32064;49.310;8.646;2023-04-25T03:50:17;3.03;;;2.40;;
19735;SDS011;32064;49.310;8.646;2023-04-25T03:52:42;3.13;;;2.40;;
19735;SDS011;32064;49.310;8.646;2023-04-25T03:55:08;3.30;;;2.40;;
19735;SDS011;32064;49.310;8.646;2023-04-25T03:57:34;2.90;;;2.60;;
19735;SDS011;32064;49.310;8.646;2023-04-25T03:59:59;3.20;;;2.37;;
19735;SDS011;32064;49.310;8.646;2023-04-25T04:02:25;4.10;;;2.57;;
19735;SDS011;32064;49.310;8.646;2023-04-25T04:04:50;2.60;;;2.40;;
19735;SDS011;32064;49.310;8.646;2023-04-25T04:07:15;4.03;;;2.47;;
19735;SDS011;32064;49.310;8.646;2023-04-25T04:09:41;2.20;;;2.00;;
19735;SDS011;32064;49.310;8.646;2023-04-25T04:12:06;3.00;;;2.17;;
19735;SDS011;32064;49.310;8.646;2023-04-25T04:14:32;3.53;;;2.40;;
19735;SDS011;32064;49.310;8.646;2023-04-25T04:16:57;3.20;;;2.60;;
19735;SDS011;32064;49.310;8.646;2023-04-25T04:19:22;2.70;;;2.20;;
19735;SDS011;32064;49.310;8.646;2023-04-25T04:21:48;4.00;;;1.90;;
19735;SDS011;32064;49.310;8.646;2023-04-25T04:24:13;6.40;;;2.30;;
19735;SDS011;32064;49.310;8.646;2023-04-25T04:26:40;2.90;;;2.10;;
19735;SDS011;32064;49.310;8.646;2023-04-25T04:29:05;3.87;;;2.50;;
19735;SDS011;32064;49.310;8.646;2023-04-25T04:31:32;3.87;;;2.13;;
19735;SDS011;32064;49.310;8.646;2023-04-25T04:33:57;3.17;;;2.23;;
19735;SDS011;32064;49.310;8.646;2023-04-25T04:36:23;2.67;;;2.23;;
19735;SDS011;32064;49.310;8.646;2023-04-25T04:38:51;3.17;;;2.10;;
19735;SDS011;32064;49.310;8.646;2023-04-25T04:41:17;3.83;;;2.33;;
19735;SDS011;32064;49.310;8.646;2023-04-25T04:43:44;3.60;;;2.40;;
19735;SDS011;32064;49.310;8.646;2023-04-25T04:46:10;4.17;;;2.67;;
19735;SDS011;32064;49.310;8.646;2023-04-25T04:48:35;2.73;;;2.10;;
19735;SDS011;32064;49.310;8.646;2023-04-25T04:51:00;2.37;;;2.17;;
19735;SDS011;32064;49.310;8.646;2023-04-25T04:53:26;3.07;;;2.57;;
19735;SDS011;32064;49.310;8.646;2023-04-25T04:55:52;2.60;;;2.33;;
19735;SDS011;32064;49.310;8.646;2023-04-25T04:58:17;2.30;;;2.10;;
19735;SDS011;32064;49.310;8.646;2023-04-25T05:00:43;2.87;;;2.13;;
19735;SDS011;32064;49.310;8.646;2023-04-25T05:03:09;3.10;;;2.33;;
19735;SDS011;32064;49.310;8.646;2023-04-25T05:05:36;3.27;;;2.27;;
19735;SDS011;32064;49.310;8.646;2023-04-25T05:08:04;3.53;;;2.60;;
19735;SDS011;32064;49.310;8.646;2023-04-25T05:10:30;4.43;;;2.73;;
19735;SDS011;32064;49.310;8.646;2023-04-25T05:12:56;3.60;;;2.37;;
19735;SDS011;32064;49.310;8.646;2023-04-25T05:15:21;2.60;;;2.40;;
19735;SDS011;32064;49.310;8.646;2023-04-25T05:17:46;3.03;;;2.57;;
19735;SDS011;32064;49.310;8.646;2023-04-25T05:20:12;3.50;;;2.60;;
19735;SDS011;32064;49.310;8.646;2023-04-25T05:22:39;2.63;;;2.40;;
19735;SDS011;32064;49.310;8.646;2023-04-25T05:25:06;2.77;;;2.50;;
19735;SDS011;32064;49.310;8.646;2023-04-25T05:27:32;3.10;;;2.37;;
19735;SDS011;32064;49.310;8.646;2023-04-25T05:29:58;2.80;;;2.33;;
19735;SDS011;32064;49.310;8.646;2023-04-25T05:32:23;3.53;;;2.77;;
19735;SDS011;32064;49.310;8.646;2023-04-25T05:34:49;5.20;;;2.70;;
19735;SDS011;32064;49.310;8.646;2023-04-25T05:37:15;3.47;;;3.00;;
19735;SDS011;32064;49.310;8.646;2023-04-25T05:39:41;3.40;;;3.00;;
19735;SDS011;32064;49.310;8.646;2023-04-25T05:42:06;4.93;;;3.13;;
19735;SDS011;32064;49.310;8.646;2023-04-25T05:44:31;4.80;;;2.37;;
19735;SDS011;32064;49.310;8.646;2023-04-25T05:46:57;3.07;;;2.73;;
19735;SDS011;32064;49.310;8.646;2023-04-25T05:49:22;3.63;;;3.00;;
19735;SDS011;32064;49.310;8.646;2023-04-25T05:51:48;3.37;;;2.70;;
19735;SDS011;32064;49.310;8.646;2023-04-25T05:54:13;5.00;;;2.90;;
19735;SDS011;32064;49.310;8.646;2023-04-25T05:56:38;4.10;;;2.90;;
19735;SDS011;32064;49.310;8.646;2023-04-25T05:59:04;3.40;;;2.70;;
19735;SDS011;32064;49.310;8.646;2023-04-25T06:01:30;3.93;;;3.10;;
19735;SDS011;32064;49.310;8.646;2023-04-25T06:03:55;2.87;;;2.50;;
19735;SDS011;32064;49.310;8.646;2023-04-25T06:06:20;6.07;;;2.97;;
19735;SDS011;32064;49.310;8.646;2023-04-25T06:08:46;2.77;;;2.40;;
19735;SDS011;32064;49.310;8.646;2023-04-25T06:11:11;4.00;;;2.63;;
19735;SDS011;32064;49.310;8.646;2023-04-25T06:13:36;3.20;;;2.60;;
19735;SDS011;32064;49.310;8.646;2023-04-25T06:16:02;4.67;;;2.87;;
19735;SDS011;32064;49.310;8.646;2023-04-25T06:18:27;3.50;;;3.20;;
19735;SDS011;32064;49.310;8.646;2023-04-25T06:20:53;3.30;;;2.80;;
19735;SDS011;32064;49.310;8.646;2023-04-25T06:23:18;4.73;;;3.07;;
19735;SDS011;32064;49.310;8.646;2023-04-25T06:25:44;3.30;;;2.93;;
19735;SDS011;32064;49.310;8.646;2023-04-25T06:28:09;6.03;;;3.00;;
19735;SDS011;32064;49.310;8.646;2023-04-25T06:30:34;4.37;;;2.90;;
19735;SDS011;32064;49.310;8.646;2023-04-25T06:33:00;3.53;;;3.23;;
19735;SDS011;32064;49.310;8.646;2023-04-25T06:35:25;3.43;;;3.00;;
19735;SDS011;32064;49.310;8.646;2023-04-25T06:37:50;2.93;;;2.63;;
19735;SDS011;32064;49.310;8.646;2023-04-25T06:40:16;2.70;;;2.47;;
19735;SDS011;32064;49.310;8.646;2023-04-25T06:42:42;4.70;;;3.47;;
19735;SDS011;32064;49.310;8.646;2023-04-25T06:45:08;3.60;;;3.10;;
19735;SDS011;32064;49.310;8.646;2023-04-25T06:47:33;3.17;;;2.87;;
19735;SDS011;32064;49.310;8.646;2023-04-25T06:49:59;3.20;;;2.80;;
19735;SDS011;32064;49.310;8.646;2023-04-25T06:52:24;4.03;;;3.30;;
19735;SDS011;32064;49.310;8.646;2023-04-25T06:54:50;3.77;;;2.87;;
19735;SDS011;32064;49.310;8.646;2023-04-25T06:57:15;2.90;;;2.70;;
19735;SDS011;32064;49.310;8.646;2023-04-25T06:59:41;3.93;;;3.00;;
19735;SDS011;32064;49.310;8.646;2023-04-25T07:02:06;3.57;;;3.13;;
19735;SDS011;32064;49.310;8.646;2023-04-25T07:04:31;4.17;;;3.03;;
19735;SDS011;32064;49.310;8.646;2023-04-25T07:06:57;3.60;;;2.97;;
19735;SDS011;32064;49.310;8.646;2023-04-25T07:09:22;2.80;;;2.60;;
19735;SDS011;32064;49.310;8.646;2023-04-25T07:11:48;4.77;;;3.30;;
19735;SDS011;32064;49.310;8.646;2023-04-25T07:14:13;3.20;;;2.90;;
19735;SDS011;32064;49.310;8.646;2023-04-25T07:16:40;6.07;;;3.03;;
19735;SDS011;32064;49.310;8.646;2023-04-25T07:19:05;6.83;;;3.83;;
19735;SDS011;32064;49.310;8.646;2023-04-25T07:21:30;5.03;;;3.43;;
19735;SDS011;32064;49.310;8.646;2023-04-25T07:23:56;4.33;;;3.43;;
19735;SDS011;32064;49.310;8.646;2023-04-25T07:26:22;4.10;;;3.40;;
19735;SDS011;32064;49.310;8.646;2023-04-25T07:28:47;7.93;;;3.33;;
19735;SDS011;32064;49.310;8.646;2023-04-25T07:31:15;5.60;;;3.70;;
19735;SDS011;32064;49.310;8.646;2023-04-25T07:33:43;8.00;;;3.87;;
19735;SDS011;32064;49.310;8.646;2023-04-25T07:36:09;5.27;;;4.10;;
19735;SDS011;32064;49.310;8.646;2023-04-25T07:38:34;6.77;;;3.97;;
19735;SDS011;32064;49.310;8.646;2023-04-25T07:41:00;6.97;;;4.03;;
19735;SDS011;32064;49.310;8.646;2023-04-25T07:43:25;4.80;;;4.10;;
19735;SDS011;32064;49.310;8.646;2023-04-25T07:45:51;4.67;;;3.93;;
19735;SDS011;32064;49.310;8.646;2023-04-25T07:48:16;5.13;;;3.57;;
19735;SDS011;32064;49.310;8.646;2023-04-25T07:50:43;6.60;;;4.57;;
19735;SDS011;32064;49.310;8.646;2023-04-25T07:53:09;6.50;;;3.70;;
19735;SDS011;32064;49.310;8.646;2023-04-25T07:55:35;4.37;;;3.27;;
19735;SDS011;32064;49.310;8.646;2023-04-25T07:58:01;4.90;;;3.00;;
19735;SDS011;32064;49.310;8.646;2023-04-25T08:00:27;3.90;;;2.83;;
19735;SDS011;32064;49.310;8.646;2023-04-25T08:02:53;5.80;;;3.20;;
19735;SDS011;32064;49.310;8.646;2023-04-25T08:05:19;5.40;;;2.93;;
19735;SDS011;32064;49.310;8.646;2023-04-25T08:07:44;5.67;;;2.80;;
19735;SDS011;32064;49.310;8.646;2023-04-25T08:10:10;3.47;;;2.40;;
19735;SDS011;32064;49.310;8.646;2023-04-25T08:12:35;4.67;;;2.67;;
19735;SDS011;32064;49.310;8.646;2023-04-25T08:15:01;5.37;;;3.23;;
19735;SDS011;32064;49.310;8.646;2023-04-25T08:17:26;7.13;;;2.90;;
19735;SDS011;32064;49.310;8.646;2023-04-25T08:19:52;5.50;;;3.13;;
19735;SDS011;32064;49.310;8.646;2023-04-25T08:22:18;4.53;;;2.70;;
19735;SDS011;32064;49.310;8.646;2023-04-25T08:24:43;4.00;;;2.47;;
19735;SDS011;32064;49.310;8.646;2023-04-25T08:27:09;9.27;;;3.03;;
19735;SDS011;32064;49.310;8.646;2023-04-25T08:29:34;6.43;;;3.03;;
19735;SDS011;32064;49.310;8.646;2023-04-25T08:32:00;4.33;;;3.00;;
19735;SDS011;32064;49.310;8.646;2023-04-25T08:34:26;3.27;;;2.67;;
19735;SDS011;32064;49.310;8.646;2023-04-25T08:36:51;4.67;;;2.97;;
19735;SDS011;32064;49.310;8.646;2023-04-25T08:39:17;5.77;;;2.53;;
19735;SDS011;32064;49.310;8.646;2023-04-25T08:41:42;8.17;;;3.03;;
19735;SDS011;32064;49.310;8.646;2023-04-25T08:44:12;7.90;;;2.90;;
19735;SDS011;32064;49.310;8.646;2023-04-25T08:46:39;5.53;;;2.70;;
19735;SDS011;32064;49.310;8.646;2023-04-25T08:49:07;5.63;;;2.57;;
19735;SDS011;32064;49.310;8.646;2023-04-25T08:51:43;4.03;;;2.20;;
19735;SDS011;32064;49.310;8.646;2023-04-25T08:54:12;3.35;;;2.22;;
19735;SDS011;32064;49.310;8.646;2023-04-25T08:56:39;4.53;;;2.13;;
19735;SDS011;32064;49.310;8.646;2023-04-25T08:59:09;3.97;;;2.10;;
19735;SDS011;32064;49.310;8.646;2023-04-25T09:01:36;3.67;;;2.33;;
19735;SDS011;32064;49.310;8.646;2023-04-25T09:04:01;7.60;;;2.50;;
19735;SDS011;32064;49.310;8.646;2023-04-25T09:06:28;3.80;;;2.15;;
19735;SDS011;32064;49.310;8.646;2023-04-25T09:09:00;2.33;;;1.80;;
19735;SDS011;32064;49.310;8.646;2023-04-25T09:11:28;4.95;;;2.25;;
19735;SDS011;32064;49.310;8.646;2023-04-25T09:14:09;3.05;;;2.28;;
19735;SDS011;32064;49.310;8.646;2023-04-25T09:19:28;3.20;;;2.20;;
19735;SDS011;32064;49.310;8.646;2023-04-25T09:21:58;5.38;;;2.08;;
19735;SDS011;32064;49.310;8.646;2023-04-25T09:24:38;6.03;;;2.58;;
19735;SDS011;32064;49.310;8.646;2023-04-25T09:27:11;4.55;;;2.95;;
19735;SDS011;32064;49.310;8.646;2023-04-25T09:29:42;3.17;;;2.22;;
19735;SDS011;32064;49.310;8.646;2023-04-25T09:34:55;3.80;;;2.05;;
19735;SDS011;32064;49.310;8.646;2023-04-25T09:37:26;4.93;;;2.80;;
19735;SDS011;32064;49.310;8.646;2023-04-25T09:39:53;7.60;;;2.60;;
19735;SDS011;32064;49.310;8.646;2023-04-25T09:42:24;4.60;;;2.25;;
19735;SDS011;32064;49.310;8.646;2023-04-25T09:44:52;3.47;;;2.03;;
19735;SDS011;32064;49.310;8.646;2023-04-25T09:47:19;5.22;;;2.33;;
19735;SDS011;32064;49.310;8.646;2023-04-25T09:49:46;3.65;;;2.20;;
19735;SDS011;32064;49.310;8.646;2023-04-25T09:52:16;3.72;;;2.40;;
19735;SDS011;32064;49.310;8.646;2023-04-25T09:54:47;6.80;;;3.00;;
19735;SDS011;32064;49.310;8.646;2023-04-25T09:57:14;3.10;;;1.98;;
19735;SDS011;32064;49.310;8.646;2023-04-25T09:59:42;5.65;;;2.30;;
19735;SDS011;32064;49.310;8.646;2023-04-25T10:02:09;4.03;;;2.40;;
19735;SDS011;32064;49.310;8.646;2023-04-25T10:04:36;4.97;;;2.28;;
19735;SDS011;32064;49.310;8.646;2023-04-25T10:07:06;2.88;;;2.40;;
19735;SDS011;32064;49.310;8.646;2023-04-25T10:09:33;5.72;;;2.15;;
19735;SDS011;32064;49.310;8.646;2023-04-25T10:12:02;5.38;;;2.78;;
19735;SDS011;32064;49.310;8.646;2023-04-25T10:14:31;3.30;;;2.33;;
19735;SDS011;32064;49.310;8.646;2023-04-25T10:16:57;4.32;;;1.98;;
19735;SDS011;32064;49.310;8.646;2023-04-25T10:19:24;2.58;;;2.05;;
19735;SDS011;32064;49.310;8.646;2023-04-25T10:21:55;3.75;;;1.98;;
19735;SDS011;32064;49.310;8.646;2023-04-25T10:24:22;3.20;;;2.08;;
19735;SDS011;32064;49.310;8.646;2023-04-25T10:26:48;3.97;;;2.33;;
19735;SDS011;32064;49.310;8.646;2023-04-25T10:29:21;4.32;;;2.58;;
19735;SDS011;32064;49.310;8.646;2023-04-25T10:31:48;4.75;;;2.60;;
19735;SDS011;32064;49.310;8.646;2023-04-25T10:34:15;4.85;;;2.10;;
19735;SDS011;32064;49.310;8.646;2023-04-25T10:36:48;4.97;;;2.58;;
19735;SDS011;32064;49.310;8.646;2023-04-25T10:39:21;5.97;;;3.05;;
19735;SDS011;32064;49.310;8.646;2023-04-25T10:41:58;4.22;;;2.70;;
19735;SDS011;32064;49.310;8.646;2023-04-25T10:44:27;4.63;;;2.28;;
19735;SDS011;32064;49.310;8.646;2023-04-25T10:46:57;4.63;;;2.40;;
19735;SDS011;32064;49.310;8.646;2023-04-25T10:49:31;4.15;;;2.08;;
19735;SDS011;32064;49.310;8.646;2023-04-25T10:52:11;4.30;;;2.33;;
19735;SDS011;32064;49.310;8.646;2023-04-25T10:54:53;4.05;;;2.30;;
19735;SDS011;32064;49.310;8.646;2023-04-25T11:00:15;5.33;;;2.70;;
19735;SDS011;32064;49.310;8.646;2023-04-25T11:02:42;4.20;;;2.70;;
19735;SDS011;32064;49.310;8.646;2023-04-25T11:05:10;5.83;;;2.20;;
19735;SDS011;32064;49.310;8.646;2023-04-25T11:08:00;5.37;;;2.73;;
19735;SDS011;32064;49.310;8.646;2023-04-25T11:10:29;4.50;;;2.08;;
19735;SDS011;32064;49.310;8.646;2023-04-25T11:12:56;5.18;;;2.25;;
19735;SDS011;32064;49.310;8.646;2023-04-25T11:15:25;3.58;;;2.30;;
19735;SDS011;32064;49.310;8.646;2023-04-25T11:17:54;3.05;;;1.42;;
19735;SDS011;32064;49.310;8.646;2023-04-25T11:20:20;4.85;;;2.10;;
19735;SDS011;32064;49.310;8.646;2023-04-25T11:22:46;6.60;;;2.42;;
19735;SDS011;32064;49.310;8.646;2023-04-25T11:25:13;3.97;;;2.25;;
19735;SDS011;32064;49.310;8.646;2023-04-25T11:27:53;3.42;;;1.90;;
19735;SDS011;32064;49.310;8.646;2023-04-25T11:30:20;5.93;;;2.33;;
19735;SDS011;32064;49.310;8.646;2023-04-25T11:32:46;4.37;;;2.30;;
19735;SDS011;32064;49.310;8.646;2023-04-25T11:35:12;4.20;;;2.10;;
19735;SDS011;32064;49.310;8.646;2023-04-25T11:37:41;5.90;;;2.47;;
19735;SDS011;32064;49.310;8.646;2023-04-25T11:40:08;3.20;;;2.08;;
19735;SDS011;32064;49.310;8.646;2023-04-25T11:42:36;4.43;;;2.00;;
19735;SDS011;32064;49.310;8.646;2023-04-25T11:45:03;5.18;;;2.35;;
19735;SDS011;32064;49.310;8.646;2023-04-25T11:47:30;3.88;;;2.20;;
19735;SDS011;32064;49.310;8.646;2023-04-25T11:49:57;5.65;;;2.40;;
19735;SDS011;32064;49.310;8.646;2023-04-25T11:52:37;2.38;;;2.10;;
19735;SDS011;32064;49.310;8.646;2023-04-25T11:55:04;3.25;;;2.00;;
19735;SDS011;32064;49.310;8.646;2023-04-25T11:57:34;3.03;;;1.80;;
19735;SDS011;32064;49.310;8.646;2023-04-25T12:00:09;5.43;;;2.03;;
19735;SDS011;32064;49.310;8.646;2023-04-25T12:02:36;2.60;;;2.10;;
19735;SDS011;32064;49.310;8.646;2023-04-25T12:05:02;3.70;;;1.77;;
19735;SDS011;32064;49.310;8.646;2023-04-25T12:07:31;2.47;;;1.80;;
19735;SDS011;32064;49.310;8.646;2023-04-25T12:09:56;3.95;;;2.00;;
19735;SDS011;32064;49.310;8.646;2023-04-25T12:12:26;2.25;;;1.75;;
19735;SDS011;32064;49.310;8.646;2023-04-25T12:14:52;3.03;;;1.83;;
19735;SDS011;32064;49.310;8.646;2023-04-25T12:17:17;3.08;;;1.60;;
19735;SDS011;32064;49.310;8.646;2023-04-25T12:19:43;2.65;;;1.77;;
19735;SDS011;32064;49.310;8.646;2023-04-25T12:22:19;3.25;;;1.90;;
19735;SDS011;32064;49.310;8.646;2023-04-25T12:24:48;2.58;;;1.65;;
19735;SDS011;32064;49.310;8.646;2023-04-25T12:27:14;2.42;;;1.80;;
19735;SDS011;32064;49.310;8.646;2023-04-25T12:29:49;2.20;;;1.40;;
19735;SDS011;32064;49.310;8.646;2023-04-25T12:32:19;4.20;;;1.65;;
19735;SDS011;32064;49.310;8.646;2023-04-25T12:34:45;3.35;;;1.65;;
19735;SDS011;32064;49.310;8.646;2023-04-25T12:37:11;1.77;;;1.57;;
19735;SDS011;32064;49.310;8.646;2023-04-25T12:39:36;4.03;;;1.90;;
19735;SDS011;32064;49.310;8.646;2023-04-25T12:42:02;3.40;;;1.93;;
19735;SDS011;32064;49.310;8.646;2023-04-25T12:44:28;3.73;;;1.80;;
19735;SDS011;32064;49.310;8.646;2023-04-25T12:46:54;2.10;;;1.63;;
19735;SDS011;32064;49.310;8.646;2023-04-25T12:49:20;3.03;;;1.67;;
19735;SDS011;32064;49.310;8.646;2023-04-25T12:51:45;3.33;;;1.80;;
19735;SDS011;32064;49.310;8.646;2023-04-25T12:54:11;5.65;;;3.20;;
19735;SDS011;32064;49.310;8.646;2023-04-25T12:56:37;7.43;;;2.38;;
19735;SDS011;32064;49.310;8.646;2023-04-25T12:59:02;4.43;;;3.15;;
19735;SDS011;32064;49.310;8.646;2023-04-25T13:01:28;2.92;;;1.73;;
19735;SDS011;32064;49.310;8.646;2023-04-25T13:03:54;2.45;;;1.83;;
19735;SDS011;32064;49.310;8.646;2023-04-25T13:06:20;4.57;;;2.50;;
19735;SDS011;32064;49.310;8.646;2023-04-25T13:08:46;2.67;;;1.65;;
19735;SDS011;32064;49.310;8.646;2023-04-25T13:11:12;4.75;;;2.10;;
19735;SDS011;32064;49.310;8.646;2023-04-25T13:13:37;3.05;;;2.08;;
19735;SDS011;32064;49.310;8.646;2023-04-25T13:16:05;2.38;;;2.00;;
19735;SDS011;32064;49.310;8.646;2023-04-25T13:18:31;3.38;;;2.60;;
19735;SDS011;32064;49.310;8.646;2023-04-25T13:20:57;1.88;;;1.67;;
19735;SDS011;32064;49.310;8.646;2023-04-25T13:23:24;3.10;;;1.55;;
19735;SDS011;32064;49.310;8.646;2023-04-25T13:25:51;2.08;;;1.50;;
19735;SDS011;32064;49.310;8.646;2023-04-25T13:28:16;3.50;;;1.77;;
19735;SDS011;32064;49.310;8.646;2023-04-25T13:30:42;2.28;;;1.60;;
19735;SDS011;32064;49.310;8.646;2023-04-25T13:33:07;2.53;;;1.38;;
19735;SDS011;32064;49.310;8.646;2023-04-25T13:35:34;2.63;;;1.73;;
19735;SDS011;32064;49.310;8.646;2023-04-25T13:38:00;3.40;;;1.95;;
19735;SDS011;32064;49.310;8.646;2023-04-25T13:40:26;2.50;;;1.85;;
19735;SDS011;32064;49.310;8.646;2023-04-25T13:42:52;3.28;;;2.00;;
19735;SDS011;32064;49.310;8.646;2023-04-25T13:45:18;3.28;;;2.28;;
19735;SDS011;32064;49.310;8.646;2023-04-25T13:47:44;3.13;;;1.75;;
19735;SDS011;32064;49.310;8.646;2023-04-25T13:50:10;3.08;;;1.75;;
19735;SDS011;32064;49.310;8.646;2023-04-25T13:52:35;2.47;;;1.88;;
19735;SDS011;32064;49.310;8.646;2023-04-25T13:55:01;2.88;;;2.15;;
19735;SDS011;32064;49.310;8.646;2023-04-25T13:57:28;4.00;;;1.70;;
19735;SDS011;32064;49.310;8.646;2023-04-25T13:59:55;2.70;;;1.92;;
19735;SDS011;32064;49.310;8.646;2023-04-25T14:02:21;3.70;;;2.22;;
19735;SDS011;32064;49.310;8.646;2023-04-25T14:04:46;5.07;;;2.15;;
19735;SDS011;32064;49.310;8.646;2023-04-25T14:07:11;3.00;;;2.03;;
19735;SDS011;32064;49.310;8.646;2023-04-25T14:09:37;2.65;;;2.05;;
19735;SDS011;32064;49.310;8.646;2023-04-25T14:12:02;3.70;;;2.00;;
19735;SDS011;32064;49.310;8.646;2023-04-25T14:14:28;2.72;;;1.73;;
19735;SDS011;32064;49.310;8.646;2023-04-25T14:16:53;4.50;;;2.33;;
19735;SDS011;32064;49.310;8.646;2023-04-25T14:19:19;5.43;;;2.20;;
19735;SDS011;32064;49.310;8.646;2023-04-25T14:21:46;4.22;;;2.00;;
19735;SDS011;32064;49.310;8.646;2023-04-25T14:24:12;5.60;;;2.17;;
19735;SDS011;32064;49.310;8.646;2023-04-25T14:26:38;4.57;;;2.40;;
19735;SDS011;32064;49.310;8.646;2023-04-25T14:29:06;3.80;;;2.00;;
19735;SDS011;32064;49.310;8.646;2023-04-25T14:31:33;4.25;;;2.55;;
19735;SDS011;32064;49.310;8.646;2023-04-25T14:33:59;2.33;;;2.05;;
19735;SDS011;32064;49.310;8.646;2023-04-25T14:36:25;2.38;;;1.83;;
19735;SDS011;32064;49.310;8.646;2023-04-25T14:38:51;3.95;;;2.20;;
19735;SDS011;32064;49.310;8.646;2023-04-25T14:41:17;2.58;;;2.20;;
19735;SDS011;32064;49.310;8.646;2023-04-25T14:43:43;2.63;;;1.85;;
19735;SDS011;32064;49.310;8.646;2023-04-25T14:46:10;3.08;;;2.17;;
19735;SDS011;32064;49.310;8.646;2023-04-25T14:48:35;2.77;;;2.03;;
19735;SDS011;32064;49.310;8.646;2023-04-25T14:51:01;3.05;;;2.20;;
19735;SDS011;32064;49.310;8.646;2023-04-25T14:53:27;3.63;;;2.00;;